首页
METAR-TAF:

METAR-TAF

机场 :

Whiting_Field_Naval_Air_Station_South_Airport

Milton, 佛罗里达州, 美国

纬度: 30-41-50N, 经度: 087-01-12W, 海拔: 54米

当前天气观测

该预报发布于1小时和0分钟前的00:56 UTC
风速7节,风向
温度 11°C
湿度 62%
气压 1018 hPa
能見度: 16.1公里
天空无云

METAR: KNDZ 170056Z AUTO 35007KT 10SM CLR 11/04 A3005 RMK AO2 SLP164 T01060044 $

时间: 19:56 (01:56 UTC)


TAF: 丢失

超过4000个机场的气象观测和天气预报(METAR&TAF报告)。

可查询的气象台以黄色和红色小点在地图上表示。

将鼠标移到小点上方,可查看气象台名称。

然后点击查看天气观测和预报。

如需切换地图:点击带黑十字的绿色按钮放大地图;点击带横线的绿色按钮缩小地图;或者点击绿色箭头查看邻近地区的地图。


METAR-TAF: